Weather at Singapore Changi Airport / Changi Air Base (West)

Public forecast

Using degrees Celsius for public forecast. Weather courtesy of forecast.io.

Current aviation weather report (METAR) for Singapore Changi Airport / Changi Air Base (West)

Retrieved 2021/01/23 13:30 UTC (0 seconds ago):

WSSS 231330Z 34007KT 9999 FEW018 BKN300 24/22 Q1011 NOSIG

Aviation forecast (TAF) for Singapore Changi Airport / Changi Air Base (West)

Retrieved 2021/01/23 12:06 UTC (1 hour ago):

TAF WSSS 231100Z 2312/2418 03010KT 9999 FEW015CB SCT020